Terminal Aerodrome Forecast
Issued by NWS

Home | Current Version | Previous Version | Graphics & Text | Print | Product List | Glossary On
Versions: 1 2 3 4 5 6 7 8 9 10 11 12 13 14 15 16 17 18 19 20 21 22 23 24 25
000
FTUS42 KMHX 200233 AAA
TAFISO
TAF AMD
KISO 200233Z 2003/2024 15008G16KT 5SM SHRA BKN008 OVC015
      TEMPO 2003/2005 2SM +SHRA BR
     FM200730 20007KT P6SM VCSH SCT007 OVC015
     FM201500 23011G19KT P6SM SCT035
     FM202200 23009KT P6SM VCSH BKN040
      AMD LTD TO CLD VIS AND WIND=

USA.gov is the U.S. government's official web portal to all federal, state and local government web resources and services.